KPVF

Details ICAO KPVF
Name PLACERVILLE
Region United States
Timezone America/Los_Angeles (UTC-8.0)
Plans Departing 4
Arriving 4
Stats Elevation 2,585 ft / 788 m (AMSL)
Location 38.724219° -120.753327°
Runways 1
Magnetic Variation 13.430° E
Sunrise 2017-12-15 15:15:33 UTC / 2017-12-15 07:15:33 Local
Sunset 2017-12-16 00:43:53 UTC / 2017-12-15 16:43:53 Local
Advertisement - Login to hide

Runways

ID Width Length Bearing (true) Bearing (mag) Surface Threshold Offset Overrun Length
05 75 ft / 23 m 4,196 ft / 1,279 m 62.80° 49.37° Asphalt 0 ft / 0 m 0 ft / 0 m
23 75 ft / 23 m 4,196 ft / 1,279 m 242.81° 229.38° Asphalt 0 ft / 0 m 0 ft / 0 m

Map

Weather


0- 5 10 15 20 25 30 35+ Temperature / ° C

Clouds and Precipitation
Forecast for 2017-12-16 06:00 UTC. Updated 25 minutes ago

Ground ~20,000 ft ~40,000 ft Winds

METAR

KPVF 160135Z AUTO 00000KT 10SM CLR 13/M06 A3007 RMK AO1

TAF

Not found

Frequencies

Unicom 122.80 MHz CTAF/UNICOM
Approach 127.40 MHz NORCAL APP/DEP
Warning: Do not use this data for real-world aviation or navigation. No guarantee of current accuracy is given.